Terminal Aerodrome Forecast
Issued by NWS

Home | Current Version | Previous Version | Text Only | Print | Product List | Glossary On
Versions: 1 2 3 4 5 6 7 8 9 10 11 12 13 14 15 16 17
000
FTUS45 KTFX 061100
TAFCTB
TAF
KCTB 061124Z 0612/0712 26015G25KT P6SM BKN120
     FM061600 27025G38KT P6SM SCT080 BKN150
     FM070300 28010KT P6SM BKN120=

USA.gov is the U.S. government's official web portal to all federal, state and local government web resources and services.